Main page
METAR-TAF:

METAR-TAF

Airports :

Fa'a'ā International Airport

Tahiti, French Polynesia

latitude: 17-33S, longitude: 149-37W, elevation: 2 m

Current weather observation

The report was made 25 minutes ago, at 22:00 UTC
Wind 7 kt from the Southwest
Temperature 31°C
Humidity 66%
Pressure 1008 hPa
Visibility 10 km or more
Few clouds at a height of 2300 ft
Broken clouds at a height of 26000 ft

METAR: NTAA 162200Z 22007KT 9999 FEW023 BKN260 31/24 Q1008 NOSIG

Time: 12:25 (22:25 UTC)

Forecast

The report was made 5 hours and 25 minutes ago, at 17:00 UTC
Forecast valid from 16 at 18 UTC to 17 at 24 UTC
Wind 5 kt from variable directions
Visibility 10 km or more
Few clouds at a height of 2000 ft
Scattered clouds at a height of 6600 ft
Broken clouds at a height of 30000 ft
Temporary
from 16 at 20 UTC to 17 at 02 UTC
Wind 12 kt from the East/Northeast

TAF: NTAA 161700Z 1618/1724 VRB05KT 9999 FEW020 SCT066 BKN300 TEMPO 1620/1702 07012KT

Weather observations and forecasts of more than 4000 airports (METAR and TAF reports).

The available stations are represented by yellow and red dots on the map.

Hover mouse over dot to see the name of the station.

Then click to see weather observations and forecasts.

To change the map : click on the green buttons with a black cross to zoom in, on the green button with a dash to zoom out, or on the green arrows for adjacent maps.


METAR-TAF: